sensor_id;sensor_type;location;lat;lon;timestamp;P1;durP1;ratioP1;P2;durP2;ratioP2
73563;SDS011;61834;50.196;6.454;2022-09-23T00:01:35;1.23;;;0.80;;
73563;SDS011;61834;50.196;6.454;2022-09-23T00:04:01;1.70;;;0.80;;
73563;SDS011;61834;50.196;6.454;2022-09-23T00:06:26;0.70;;;0.60;;
73563;SDS011;61834;50.196;6.454;2022-09-23T00:08:52;0.95;;;0.80;;
73563;SDS011;61834;50.196;6.454;2022-09-23T00:11:22;0.90;;;0.70;;
73563;SDS011;61834;50.196;6.454;2022-09-23T00:13:50;1.00;;;0.82;;
73563;SDS011;61834;50.196;6.454;2022-09-23T00:16:19;1.83;;;1.10;;
73563;SDS011;61834;50.196;6.454;2022-09-23T00:18:53;0.77;;;0.68;;
73563;SDS011;61834;50.196;6.454;2022-09-23T00:21:19;1.67;;;0.80;;
73563;SDS011;61834;50.196;6.454;2022-09-23T00:23:46;1.63;;;0.80;;
73563;SDS011;61834;50.196;6.454;2022-09-23T00:26:12;0.70;;;0.68;;
73563;SDS011;61834;50.196;6.454;2022-09-23T00:28:39;1.23;;;0.80;;
73563;SDS011;61834;50.196;6.454;2022-09-23T00:31:06;0.80;;;0.80;;
73563;SDS011;61834;50.196;6.454;2022-09-23T00:33:43;0.98;;;0.88;;
73563;SDS011;61834;50.196;6.454;2022-09-23T00:36:09;0.77;;;0.77;;
73563;SDS011;61834;50.196;6.454;2022-09-23T00:38:37;1.02;;;0.80;;
73563;SDS011;61834;50.196;6.454;2022-09-23T00:41:02;1.23;;;0.90;;
73563;SDS011;61834;50.196;6.454;2022-09-23T00:43:49;1.67;;;0.77;;
73563;SDS011;61834;50.196;6.454;2022-09-23T00:46:27;1.00;;;0.90;;
73563;SDS011;61834;50.196;6.454;2022-09-23T00:48:59;0.70;;;0.70;;
73563;SDS011;61834;50.196;6.454;2022-09-23T00:51:33;1.20;;;0.60;;
73563;SDS011;61834;50.196;6.454;2022-09-23T00:54:05;0.60;;;0.60;;
73563;SDS011;61834;50.196;6.454;2022-09-23T00:56:30;1.73;;;0.68;;
73563;SDS011;61834;50.196;6.454;2022-09-23T00:58:57;0.60;;;0.60;;
73563;SDS011;61834;50.196;6.454;2022-09-23T01:01:25;1.75;;;0.95;;
73563;SDS011;61834;50.196;6.454;2022-09-23T01:03:50;0.90;;;0.70;;
73563;SDS011;61834;50.196;6.454;2022-09-23T01:06:18;1.30;;;0.70;;
73563;SDS011;61834;50.196;6.454;2022-09-23T01:08:45;1.60;;;0.80;;
73563;SDS011;61834;50.196;6.454;2022-09-23T01:17:23;1.33;;;0.73;;
73563;SDS011;61834;50.196;6.454;2022-09-23T01:28:16;1.10;;;0.80;;
73563;SDS011;61834;50.196;6.454;2022-09-23T01:33:21;1.33;;;0.90;;
73563;SDS011;61834;50.196;6.454;2022-09-23T01:39:15;0.95;;;0.88;;
73563;SDS011;61834;50.196;6.454;2022-09-23T01:42:08;0.88;;;0.70;;
73563;SDS011;61834;50.196;6.454;2022-09-23T01:44:42;0.98;;;0.77;;
73563;SDS011;61834;50.196;6.454;2022-09-23T01:47:24;2.97;;;0.95;;
73563;SDS011;61834;50.196;6.454;2022-09-23T01:49:58;1.08;;;0.85;;
73563;SDS011;61834;50.196;6.454;2022-09-23T01:52:41;0.93;;;0.82;;
73563;SDS011;61834;50.196;6.454;2022-09-23T01:55:15;0.93;;;0.80;;
73563;SDS011;61834;50.196;6.454;2022-09-23T01:57:51;0.80;;;0.70;;
73563;SDS011;61834;50.196;6.454;2022-09-23T02:00:39;1.42;;;0.90;;
73563;SDS011;61834;50.196;6.454;2022-09-23T02:03:21;0.82;;;0.75;;
73563;SDS011;61834;50.196;6.454;2022-09-23T02:05:55;1.10;;;0.70;;
73563;SDS011;61834;50.196;6.454;2022-09-23T02:08:28;0.70;;;0.70;;
73563;SDS011;61834;50.196;6.454;2022-09-23T02:11:01;0.90;;;0.63;;
73563;SDS011;61834;50.196;6.454;2022-09-23T02:13:33;1.35;;;0.65;;
73563;SDS011;61834;50.196;6.454;2022-09-23T02:16:14;0.63;;;0.60;;
73563;SDS011;61834;50.196;6.454;2022-09-23T02:19:07;1.27;;;0.90;;
73563;SDS011;61834;50.196;6.454;2022-09-23T02:21:38;2.13;;;0.90;;
73563;SDS011;61834;50.196;6.454;2022-09-23T02:24:10;1.30;;;0.80;;
73563;SDS011;61834;50.196;6.454;2022-09-23T02:29:30;0.70;;;0.65;;
73563;SDS011;61834;50.196;6.454;2022-09-23T02:34:44;1.63;;;0.82;;
73563;SDS011;61834;50.196;6.454;2022-09-23T02:42:27;2.45;;;0.73;;
73563;SDS011;61834;50.196;6.454;2022-09-23T02:45:01;0.95;;;0.85;;
73563;SDS011;61834;50.196;6.454;2022-09-23T02:47:27;1.17;;;0.80;;
73563;SDS011;61834;50.196;6.454;2022-09-23T02:49:56;1.52;;;0.85;;
73563;SDS011;61834;50.196;6.454;2022-09-23T02:52:21;0.90;;;0.80;;
73563;SDS011;61834;50.196;6.454;2022-09-23T02:54:48;1.25;;;0.90;;
73563;SDS011;61834;50.196;6.454;2022-09-23T02:57:15;2.42;;;1.00;;
73563;SDS011;61834;50.196;6.454;2022-09-23T02:59:40;1.67;;;0.93;;
73563;SDS011;61834;50.196;6.454;2022-09-23T03:02:23;1.08;;;0.90;;
73563;SDS011;61834;50.196;6.454;2022-09-23T03:05:01;1.23;;;0.98;;
73563;SDS011;61834;50.196;6.454;2022-09-23T03:10:23;1.45;;;0.70;;
73563;SDS011;61834;50.196;6.454;2022-09-23T03:15:49;1.20;;;0.80;;
73563;SDS011;61834;50.196;6.454;2022-09-23T03:18:27;2.15;;;0.90;;
73563;SDS011;61834;50.196;6.454;2022-09-23T03:21:01;1.10;;;0.90;;
73563;SDS011;61834;50.196;6.454;2022-09-23T03:23:33;0.93;;;0.60;;
73563;SDS011;61834;50.196;6.454;2022-09-23T03:26:01;1.08;;;0.80;;
73563;SDS011;61834;50.196;6.454;2022-09-23T03:28:34;0.93;;;0.80;;
73563;SDS011;61834;50.196;6.454;2022-09-23T03:31:00;1.00;;;0.70;;
73563;SDS011;61834;50.196;6.454;2022-09-23T03:33:27;1.02;;;0.73;;
73563;SDS011;61834;50.196;6.454;2022-09-23T03:35:59;1.35;;;0.82;;
73563;SDS011;61834;50.196;6.454;2022-09-23T03:38:48;0.80;;;0.80;;
73563;SDS011;61834;50.196;6.454;2022-09-23T03:41:22;0.98;;;0.70;;
73563;SDS011;61834;50.196;6.454;2022-09-23T03:43:54;1.77;;;1.02;;
73563;SDS011;61834;50.196;6.454;2022-09-23T03:46:23;0.93;;;0.60;;
73563;SDS011;61834;50.196;6.454;2022-09-23T03:48:58;1.30;;;0.90;;
73563;SDS011;61834;50.196;6.454;2022-09-23T03:51:32;1.73;;;0.98;;
73563;SDS011;61834;50.196;6.454;2022-09-23T03:53:57;1.40;;;0.90;;
73563;SDS011;61834;50.196;6.454;2022-09-23T03:56:22;1.15;;;0.80;;
73563;SDS011;61834;50.196;6.454;2022-09-23T03:58:48;0.80;;;0.70;;
73563;SDS011;61834;50.196;6.454;2022-09-23T04:01:13;1.27;;;0.93;;
73563;SDS011;61834;50.196;6.454;2022-09-23T04:03:39;1.00;;;0.77;;
73563;SDS011;61834;50.196;6.454;2022-09-23T04:06:05;1.00;;;0.90;;
73563;SDS011;61834;50.196;6.454;2022-09-23T04:08:30;1.02;;;0.70;;
73563;SDS011;61834;50.196;6.454;2022-09-23T04:10:59;0.80;;;0.73;;
73563;SDS011;61834;50.196;6.454;2022-09-23T04:13:26;0.90;;;0.80;;
73563;SDS011;61834;50.196;6.454;2022-09-23T04:15:52;0.80;;;0.80;;
73563;SDS011;61834;50.196;6.454;2022-09-23T04:18:17;0.95;;;0.85;;
73563;SDS011;61834;50.196;6.454;2022-09-23T04:20:43;0.80;;;0.73;;
73563;SDS011;61834;50.196;6.454;2022-09-23T04:23:08;0.95;;;0.80;;
73563;SDS011;61834;50.196;6.454;2022-09-23T04:25:33;0.82;;;0.60;;
73563;SDS011;61834;50.196;6.454;2022-09-23T04:27:59;0.60;;;0.60;;
73563;SDS011;61834;50.196;6.454;2022-09-23T04:30:24;2.13;;;0.80;;
73563;SDS011;61834;50.196;6.454;2022-09-23T04:32:51;0.95;;;0.77;;
73563;SDS011;61834;50.196;6.454;2022-09-23T04:35:16;2.03;;;0.88;;
73563;SDS011;61834;50.196;6.454;2022-09-23T04:37:42;1.25;;;0.80;;
73563;SDS011;61834;50.196;6.454;2022-09-23T04:40:07;1.17;;;0.75;;
73563;SDS011;61834;50.196;6.454;2022-09-23T04:42:33;1.42;;;0.70;;
73563;SDS011;61834;50.196;6.454;2022-09-23T04:44:58;1.05;;;0.82;;
73563;SDS011;61834;50.196;6.454;2022-09-23T04:47:24;1.10;;;0.75;;
73563;SDS011;61834;50.196;6.454;2022-09-23T04:49:50;1.50;;;0.93;;
73563;SDS011;61834;50.196;6.454;2022-09-23T04:52:15;1.25;;;0.85;;
73563;SDS011;61834;50.196;6.454;2022-09-23T04:54:40;1.88;;;0.80;;
73563;SDS011;61834;50.196;6.454;2022-09-23T04:57:06;0.98;;;0.70;;
73563;SDS011;61834;50.196;6.454;2022-09-23T04:59:32;0.93;;;0.70;;
73563;SDS011;61834;50.196;6.454;2022-09-23T05:01:57;1.25;;;0.73;;
73563;SDS011;61834;50.196;6.454;2022-09-23T05:04:23;0.80;;;0.73;;
73563;SDS011;61834;50.196;6.454;2022-09-23T05:06:48;1.10;;;0.80;;
73563;SDS011;61834;50.196;6.454;2022-09-23T05:09:16;2.42;;;1.00;;
73563;SDS011;61834;50.196;6.454;2022-09-23T05:11:42;1.50;;;0.82;;
73563;SDS011;61834;50.196;6.454;2022-09-23T05:14:08;1.88;;;0.95;;
73563;SDS011;61834;50.196;6.454;2022-09-23T05:16:33;1.80;;;1.10;;
73563;SDS011;61834;50.196;6.454;2022-09-23T05:18:59;1.35;;;0.90;;
73563;SDS011;61834;50.196;6.454;2022-09-23T05:21:26;0.95;;;0.70;;
73563;SDS011;61834;50.196;6.454;2022-09-23T05:23:53;1.33;;;0.80;;
73563;SDS011;61834;50.196;6.454;2022-09-23T05:26:24;0.95;;;0.77;;
73563;SDS011;61834;50.196;6.454;2022-09-23T05:28:51;2.10;;;1.02;;
73563;SDS011;61834;50.196;6.454;2022-09-23T05:31:18;1.50;;;1.00;;
73563;SDS011;61834;50.196;6.454;2022-09-23T05:33:51;1.83;;;1.00;;
73563;SDS011;61834;50.196;6.454;2022-09-23T05:36:21;0.85;;;0.77;;
73563;SDS011;61834;50.196;6.454;2022-09-23T05:38:48;0.95;;;0.77;;
73563;SDS011;61834;50.196;6.454;2022-09-23T05:41:14;0.95;;;0.73;;
73563;SDS011;61834;50.196;6.454;2022-09-23T05:43:41;1.63;;;0.82;;
73563;SDS011;61834;50.196;6.454;2022-09-23T05:46:09;1.58;;;1.00;;
73563;SDS011;61834;50.196;6.454;2022-09-23T05:48:35;1.88;;;0.90;;
73563;SDS011;61834;50.196;6.454;2022-09-23T05:51:02;1.40;;;0.95;;
73563;SDS011;61834;50.196;6.454;2022-09-23T05:53:28;1.48;;;0.80;;
73563;SDS011;61834;50.196;6.454;2022-09-23T05:55:55;1.42;;;0.88;;
73563;SDS011;61834;50.196;6.454;2022-09-23T05:58:21;2.53;;;1.13;;
73563;SDS011;61834;50.196;6.454;2022-09-23T06:00:47;1.00;;;0.88;;
73563;SDS011;61834;50.196;6.454;2022-09-23T06:03:14;1.38;;;1.00;;
73563;SDS011;61834;50.196;6.454;2022-09-23T06:05:40;0.85;;;0.60;;
73563;SDS011;61834;50.196;6.454;2022-09-23T06:08:06;0.90;;;0.70;;
73563;SDS011;61834;50.196;6.454;2022-09-23T06:10:39;2.05;;;1.00;;
73563;SDS011;61834;50.196;6.454;2022-09-23T06:15:31;1.50;;;0.90;;
73563;SDS011;61834;50.196;6.454;2022-09-23T06:17:57;1.48;;;0.95;;
73563;SDS011;61834;50.196;6.454;2022-09-23T06:20:23;0.90;;;0.68;;
73563;SDS011;61834;50.196;6.454;2022-09-23T06:22:48;1.30;;;0.85;;
73563;SDS011;61834;50.196;6.454;2022-09-23T06:25:14;1.40;;;0.93;;
73563;SDS011;61834;50.196;6.454;2022-09-23T06:27:39;1.30;;;0.90;;
73563;SDS011;61834;50.196;6.454;2022-09-23T06:30:05;0.82;;;0.70;;
73563;SDS011;61834;50.196;6.454;2022-09-23T06:32:31;1.42;;;0.88;;
73563;SDS011;61834;50.196;6.454;2022-09-23T06:34:56;1.10;;;0.70;;
73563;SDS011;61834;50.196;6.454;2022-09-23T06:37:22;2.30;;;0.90;;
73563;SDS011;61834;50.196;6.454;2022-09-23T06:39:48;1.70;;;1.10;;
73563;SDS011;61834;50.196;6.454;2022-09-23T06:42:14;2.03;;;1.30;;
73563;SDS011;61834;50.196;6.454;2022-09-23T06:44:41;1.50;;;1.40;;
73563;SDS011;61834;50.196;6.454;2022-09-23T06:47:07;2.70;;;1.35;;
73563;SDS011;61834;50.196;6.454;2022-09-23T06:49:32;2.80;;;1.60;;
73563;SDS011;61834;50.196;6.454;2022-09-23T06:51:58;1.40;;;1.10;;
73563;SDS011;61834;50.196;6.454;2022-09-23T06:54:23;1.65;;;1.13;;
73563;SDS011;61834;50.196;6.454;2022-09-23T06:56:52;1.90;;;1.45;;
73563;SDS011;61834;50.196;6.454;2022-09-23T06:59:18;2.10;;;1.27;;
73563;SDS011;61834;50.196;6.454;2022-09-23T07:01:43;1.58;;;1.20;;
73563;SDS011;61834;50.196;6.454;2022-09-23T07:04:10;1.38;;;1.20;;
73563;SDS011;61834;50.196;6.454;2022-09-23T07:06:35;3.47;;;1.40;;
73563;SDS011;61834;50.196;6.454;2022-09-23T07:09:01;1.85;;;1.42;;
73563;SDS011;61834;50.196;6.454;2022-09-23T07:11:27;2.10;;;1.35;;
73563;SDS011;61834;50.196;6.454;2022-09-23T07:13:52;2.95;;;1.30;;
73563;SDS011;61834;50.196;6.454;2022-09-23T07:16:17;1.63;;;1.23;;
73563;SDS011;61834;50.196;6.454;2022-09-23T07:18:43;1.83;;;1.30;;
73563;SDS011;61834;50.196;6.454;2022-09-23T07:21:10;1.70;;;1.50;;
73563;SDS011;61834;50.196;6.454;2022-09-23T07:23:43;1.95;;;1.45;;
73563;SDS011;61834;50.196;6.454;2022-09-23T07:26:10;1.88;;;1.40;;
73563;SDS011;61834;50.196;6.454;2022-09-23T07:28:36;2.53;;;1.30;;
73563;SDS011;61834;50.196;6.454;2022-09-23T07:31:03;1.77;;;1.30;;
73563;SDS011;61834;50.196;6.454;2022-09-23T07:33:30;2.55;;;1.50;;
73563;SDS011;61834;50.196;6.454;2022-09-23T07:35:56;1.85;;;1.20;;
73563;SDS011;61834;50.196;6.454;2022-09-23T07:38:21;1.67;;;1.58;;
73563;SDS011;61834;50.196;6.454;2022-09-23T07:40:50;1.88;;;1.48;;
73563;SDS011;61834;50.196;6.454;2022-09-23T07:43:15;2.25;;;1.52;;
73563;SDS011;61834;50.196;6.454;2022-09-23T07:45:40;1.80;;;1.40;;
73563;SDS011;61834;50.196;6.454;2022-09-23T07:48:07;2.10;;;1.40;;
73563;SDS011;61834;50.196;6.454;2022-09-23T07:50:32;2.33;;;1.60;;
73563;SDS011;61834;50.196;6.454;2022-09-23T07:52:58;2.22;;;1.33;;
73563;SDS011;61834;50.196;6.454;2022-09-23T07:55:23;2.47;;;1.45;;
73563;SDS011;61834;50.196;6.454;2022-09-23T07:57:49;2.38;;;1.75;;
73563;SDS011;61834;50.196;6.454;2022-09-23T08:00:14;2.13;;;1.40;;
73563;SDS011;61834;50.196;6.454;2022-09-23T08:02:40;2.80;;;1.58;;
73563;SDS011;61834;50.196;6.454;2022-09-23T08:05:06;2.17;;;1.40;;
73563;SDS011;61834;50.196;6.454;2022-09-23T08:07:31;1.70;;;1.20;;
73563;SDS011;61834;50.196;6.454;2022-09-23T08:09:58;2.40;;;1.45;;
73563;SDS011;61834;50.196;6.454;2022-09-23T08:12:25;2.83;;;1.60;;
73563;SDS011;61834;50.196;6.454;2022-09-23T08:14:50;1.85;;;1.55;;
73563;SDS011;61834;50.196;6.454;2022-09-23T08:17:16;1.67;;;1.30;;
73563;SDS011;61834;50.196;6.454;2022-09-23T08:19:41;2.40;;;1.70;;
73563;SDS011;61834;50.196;6.454;2022-09-23T08:22:06;2.53;;;1.65;;
73563;SDS011;61834;50.196;6.454;2022-09-23T08:24:32;2.08;;;1.50;;
73563;SDS011;61834;50.196;6.454;2022-09-23T08:26:57;2.17;;;1.83;;
73563;SDS011;61834;50.196;6.454;2022-09-23T08:29:23;1.95;;;1.58;;
73563;SDS011;61834;50.196;6.454;2022-09-23T08:31:49;3.58;;;1.38;;
73563;SDS011;61834;50.196;6.454;2022-09-23T08:34:16;2.55;;;1.52;;
73563;SDS011;61834;50.196;6.454;2022-09-23T08:36:42;2.75;;;1.60;;
73563;SDS011;61834;50.196;6.454;2022-09-23T08:39:08;2.50;;;1.80;;
73563;SDS011;61834;50.196;6.454;2022-09-23T08:47:16;2.63;;;1.85;;
73563;SDS011;61834;50.196;6.454;2022-09-23T08:52:33;2.30;;;1.67;;
73563;SDS011;61834;50.196;6.454;2022-09-23T08:55:08;1.92;;;1.55;;
73563;SDS011;61834;50.196;6.454;2022-09-23T09:00:22;2.97;;;1.75;;
73563;SDS011;61834;50.196;6.454;2022-09-23T09:02:57;2.63;;;1.65;;
73563;SDS011;61834;50.196;6.454;2022-09-23T09:05:23;2.25;;;1.60;;
73563;SDS011;61834;50.196;6.454;2022-09-23T09:07:51;2.80;;;1.70;;
73563;SDS011;61834;50.196;6.454;2022-09-23T09:10:21;2.25;;;1.65;;
73563;SDS011;61834;50.196;6.454;2022-09-23T09:12:51;2.35;;;1.70;;
73563;SDS011;61834;50.196;6.454;2022-09-23T09:15:24;2.72;;;1.80;;
73563;SDS011;61834;50.196;6.454;2022-09-23T09:23:31;1.88;;;1.50;;
73563;SDS011;61834;50.196;6.454;2022-09-23T09:26:02;3.42;;;1.80;;
73563;SDS011;61834;50.196;6.454;2022-09-23T09:31:19;3.15;;;1.85;;
73563;SDS011;61834;50.196;6.454;2022-09-23T09:33:50;2.30;;;1.60;;
73563;SDS011;61834;50.196;6.454;2022-09-23T09:36:25;3.17;;;1.88;;
73563;SDS011;61834;50.196;6.454;2022-09-23T09:38:56;3.35;;;1.75;;
73563;SDS011;61834;50.196;6.454;2022-09-23T09:41:26;2.08;;;1.58;;
73563;SDS011;61834;50.196;6.454;2022-09-23T09:43:55;2.40;;;1.70;;
73563;SDS011;61834;50.196;6.454;2022-09-23T09:48:53;3.03;;;2.00;;
73563;SDS011;61834;50.196;6.454;2022-09-23T09:51:24;3.17;;;1.90;;
73563;SDS011;61834;50.196;6.454;2022-09-23T09:53:52;1.92;;;1.50;;
73563;SDS011;61834;50.196;6.454;2022-09-23T09:56:21;2.58;;;1.88;;
73563;SDS011;61834;50.196;6.454;2022-09-23T09:58:59;3.30;;;2.05;;
73563;SDS011;61834;50.196;6.454;2022-09-23T10:01:31;2.50;;;1.67;;
73563;SDS011;61834;50.196;6.454;2022-09-23T10:03:59;2.55;;;1.60;;
73563;SDS011;61834;50.196;6.454;2022-09-23T10:06:31;2.92;;;1.70;;
73563;SDS011;61834;50.196;6.454;2022-09-23T10:11:30;2.50;;;1.63;;
73563;SDS011;61834;50.196;6.454;2022-09-23T10:16:24;2.83;;;1.90;;
73563;SDS011;61834;50.196;6.454;2022-09-23T10:18:50;3.08;;;1.60;;
73563;SDS011;61834;50.196;6.454;2022-09-23T10:21:20;3.05;;;1.77;;
73563;SDS011;61834;50.196;6.454;2022-09-23T10:23:47;2.72;;;1.90;;
73563;SDS011;61834;50.196;6.454;2022-09-23T10:26:16;3.35;;;1.85;;
73563;SDS011;61834;50.196;6.454;2022-09-23T10:28:53;2.65;;;1.70;;
73563;SDS011;61834;50.196;6.454;2022-09-23T10:31:30;1.95;;;1.50;;
73563;SDS011;61834;50.196;6.454;2022-09-23T10:34:00;2.45;;;1.63;;
73563;SDS011;61834;50.196;6.454;2022-09-23T10:36:31;3.42;;;1.90;;
73563;SDS011;61834;50.196;6.454;2022-09-23T10:38:58;2.30;;;1.60;;
73563;SDS011;61834;50.196;6.454;2022-09-23T10:42:04;2.15;;;1.73;;
73563;SDS011;61834;50.196;6.454;2022-09-23T10:45:25;3.40;;;1.85;;
73563;SDS011;61834;50.196;6.454;2022-09-23T10:51:48;2.70;;;1.77;;
73563;SDS011;61834;50.196;6.454;2022-09-23T11:05:30;1.60;;;1.50;;
73563;SDS011;61834;50.196;6.454;2022-09-23T11:19:21;2.67;;;1.40;;
73563;SDS011;61834;50.196;6.454;2022-09-23T11:22:01;1.90;;;1.50;;
73563;SDS011;61834;50.196;6.454;2022-09-23T11:27:36;1.98;;;1.60;;
73563;SDS011;61834;50.196;6.454;2022-09-23T11:30:17;2.05;;;1.38;;
73563;SDS011;61834;50.196;6.454;2022-09-23T11:38:01;1.95;;;1.45;;
73563;SDS011;61834;50.196;6.454;2022-09-23T11:40:36;2.15;;;1.35;;
73563;SDS011;61834;50.196;6.454;2022-09-23T11:51:23;1.80;;;1.35;;
73563;SDS011;61834;50.196;6.454;2022-09-23T11:54:11;2.50;;;1.27;;
73563;SDS011;61834;50.196;6.454;2022-09-23T11:56:45;1.95;;;1.27;;
73563;SDS011;61834;50.196;6.454;2022-09-23T12:05:01;3.17;;;1.65;;
73563;SDS011;61834;50.196;6.454;2022-09-23T12:07:35;1.55;;;1.35;;
73563;SDS011;61834;50.196;6.454;2022-09-23T12:10:08;1.88;;;1.30;;
73563;SDS011;61834;50.196;6.454;2022-09-23T12:15:17;1.63;;;1.23;;
73563;SDS011;61834;50.196;6.454;2022-09-23T12:17:48;1.33;;;1.10;;
73563;SDS011;61834;50.196;6.454;2022-09-23T12:20:29;1.17;;;1.00;;
73563;SDS011;61834;50.196;6.454;2022-09-23T12:26:06;1.25;;;1.10;;
73563;SDS011;61834;50.196;6.454;2022-09-23T12:28:41;2.63;;;1.30;;
73563;SDS011;61834;50.196;6.454;2022-09-23T12:31:19;1.48;;;1.08;;
73563;SDS011;61834;50.196;6.454;2022-09-23T12:33:54;1.60;;;1.10;;
73563;SDS011;61834;50.196;6.454;2022-09-23T12:36:23;2.45;;;1.20;;
73563;SDS011;61834;50.196;6.454;2022-09-23T12:41:47;1.95;;;1.25;;
73563;SDS011;61834;50.196;6.454;2022-09-23T12:49:40;1.75;;;1.30;;
73563;SDS011;61834;50.196;6.454;2022-09-23T12:54:34;1.55;;;1.10;;
73563;SDS011;61834;50.196;6.454;2022-09-23T12:57:01;1.77;;;1.25;;
73563;SDS011;61834;50.196;6.454;2022-09-23T12:59:29;1.15;;;1.05;;
73563;SDS011;61834;50.196;6.454;2022-09-23T13:01:56;3.13;;;1.02;;
73563;SDS011;61834;50.196;6.454;2022-09-23T13:04:43;1.25;;;1.00;;
73563;SDS011;61834;50.196;6.454;2022-09-23T13:07:39;1.80;;;1.20;;
73563;SDS011;61834;50.196;6.454;2022-09-23T13:10:30;1.42;;;1.10;;
73563;SDS011;61834;50.196;6.454;2022-09-23T13:12:58;1.30;;;1.00;;
73563;SDS011;61834;50.196;6.454;2022-09-23T13:15:27;1.40;;;1.05;;
73563;SDS011;61834;50.196;6.454;2022-09-23T13:20:45;1.67;;;1.10;;
73563;SDS011;61834;50.196;6.454;2022-09-23T13:25:49;1.30;;;1.00;;
73563;SDS011;61834;50.196;6.454;2022-09-23T13:28:27;1.63;;;1.20;;
73563;SDS011;61834;50.196;6.454;2022-09-23T13:30:56;1.55;;;1.20;;
73563;SDS011;61834;50.196;6.454;2022-09-23T13:33:27;1.67;;;1.10;;
73563;SDS011;61834;50.196;6.454;2022-09-23T13:36:01;1.45;;;1.00;;
73563;SDS011;61834;50.196;6.454;2022-09-23T13:38:28;1.50;;;1.17;;
73563;SDS011;61834;50.196;6.454;2022-09-23T13:40:57;1.80;;;1.10;;
73563;SDS011;61834;50.196;6.454;2022-09-23T13:46:07;1.45;;;1.20;;
73563;SDS011;61834;50.196;6.454;2022-09-23T13:48:34;1.88;;;1.00;;
73563;SDS011;61834;50.196;6.454;2022-09-23T13:51:03;2.15;;;1.20;;
73563;SDS011;61834;50.196;6.454;2022-09-23T13:53:34;1.40;;;1.10;;
73563;SDS011;61834;50.196;6.454;2022-09-23T13:58:31;1.00;;;0.90;;
73563;SDS011;61834;50.196;6.454;2022-09-23T14:00:57;1.20;;;0.90;;
73563;SDS011;61834;50.196;6.454;2022-09-23T14:03:30;1.25;;;1.10;;
73563;SDS011;61834;50.196;6.454;2022-09-23T14:06:00;0.80;;;0.80;;
73563;SDS011;61834;50.196;6.454;2022-09-23T14:08:28;1.00;;;0.90;;
73563;SDS011;61834;50.196;6.454;2022-09-23T14:10:56;1.40;;;1.17;;
73563;SDS011;61834;50.196;6.454;2022-09-23T14:13:23;1.23;;;1.10;;
73563;SDS011;61834;50.196;6.454;2022-09-23T14:15:51;1.10;;;0.80;;
73563;SDS011;61834;50.196;6.454;2022-09-23T14:21:24;1.38;;;0.90;;
73563;SDS011;61834;50.196;6.454;2022-09-23T14:24:13;1.42;;;1.10;;
73563;SDS011;61834;50.196;6.454;2022-09-23T14:29:31;1.85;;;1.00;;
73563;SDS011;61834;50.196;6.454;2022-09-23T14:32:20;1.27;;;1.00;;
73563;SDS011;61834;50.196;6.454;2022-09-23T14:34:55;2.60;;;0.85;;
73563;SDS011;61834;50.196;6.454;2022-09-23T14:40:30;1.15;;;1.05;;
73563;SDS011;61834;50.196;6.454;2022-09-23T14:45:23;1.47;;;1.00;;
73563;SDS011;61834;50.196;6.454;2022-09-23T14:47:52;0.80;;;0.80;;
73563;SDS011;61834;50.196;6.454;2022-09-23T14:50:23;2.00;;;1.10;;
73563;SDS011;61834;50.196;6.454;2022-09-23T14:55:51;1.13;;;1.00;;
73563;SDS011;61834;50.196;6.454;2022-09-23T14:58:18;1.50;;;0.80;;
73563;SDS011;61834;50.196;6.454;2022-09-23T15:00:53;0.88;;;0.77;;
73563;SDS011;61834;50.196;6.454;2022-09-23T15:03:21;1.77;;;1.00;;
73563;SDS011;61834;50.196;6.454;2022-09-23T15:05:47;1.27;;;0.88;;
73563;SDS011;61834;50.196;6.454;2022-09-23T15:08:19;0.75;;;0.75;;
73563;SDS011;61834;50.196;6.454;2022-09-23T15:10:47;1.00;;;0.90;;
73563;SDS011;61834;50.196;6.454;2022-09-23T15:16:13;1.45;;;0.95;;
73563;SDS011;61834;50.196;6.454;2022-09-23T15:18:42;1.13;;;0.90;;
73563;SDS011;61834;50.196;6.454;2022-09-23T15:21:13;1.55;;;0.80;;
73563;SDS011;61834;50.196;6.454;2022-09-23T15:23:54;1.27;;;0.90;;
73563;SDS011;61834;50.196;6.454;2022-09-23T15:26:24;1.35;;;0.98;;
73563;SDS011;61834;50.196;6.454;2022-09-23T15:29:06;1.33;;;0.93;;
73563;SDS011;61834;50.196;6.454;2022-09-23T15:31:33;1.45;;;0.73;;
73563;SDS011;61834;50.196;6.454;2022-09-23T15:34:00;1.25;;;0.80;;
73563;SDS011;61834;50.196;6.454;2022-09-23T15:36:26;1.05;;;0.90;;
73563;SDS011;61834;50.196;6.454;2022-09-23T15:38:52;1.10;;;0.95;;
73563;SDS011;61834;50.196;6.454;2022-09-23T15:41:21;1.23;;;1.00;;
73563;SDS011;61834;50.196;6.454;2022-09-23T15:43:48;0.80;;;0.63;;
73563;SDS011;61834;50.196;6.454;2022-09-23T15:46:21;1.10;;;0.80;;
73563;SDS011;61834;50.196;6.454;2022-09-23T15:49:04;0.70;;;0.70;;
73563;SDS011;61834;50.196;6.454;2022-09-23T15:51:32;1.27;;;1.10;;
73563;SDS011;61834;50.196;6.454;2022-09-23T15:54:00;0.80;;;0.80;;
73563;SDS011;61834;50.196;6.454;2022-09-23T15:56:26;0.75;;;0.73;;
73563;SDS011;61834;50.196;6.454;2022-09-23T15:58:51;0.82;;;0.80;;
73563;SDS011;61834;50.196;6.454;2022-09-23T16:01:23;1.55;;;1.05;;
73563;SDS011;61834;50.196;6.454;2022-09-23T16:03:54;0.88;;;0.70;;
73563;SDS011;61834;50.196;6.454;2022-09-23T16:06:20;0.80;;;0.80;;
73563;SDS011;61834;50.196;6.454;2022-09-23T16:08:46;1.42;;;0.80;;
73563;SDS011;61834;50.196;6.454;2022-09-23T16:11:19;1.17;;;0.85;;
73563;SDS011;61834;50.196;6.454;2022-09-23T16:13:56;1.20;;;0.90;;
73563;SDS011;61834;50.196;6.454;2022-09-23T16:16:22;1.27;;;0.90;;
73563;SDS011;61834;50.196;6.454;2022-09-23T16:18:48;1.02;;;0.80;;
73563;SDS011;61834;50.196;6.454;2022-09-23T16:21:18;2.08;;;1.00;;
73563;SDS011;61834;50.196;6.454;2022-09-23T16:23:46;0.95;;;0.80;;
73563;SDS011;61834;50.196;6.454;2022-09-23T16:26:24;1.10;;;0.85;;
73563;SDS011;61834;50.196;6.454;2022-09-23T16:28:54;1.48;;;0.90;;
73563;SDS011;61834;50.196;6.454;2022-09-23T16:31:21;1.15;;;1.00;;
73563;SDS011;61834;50.196;6.454;2022-09-23T16:33:49;1.10;;;0.93;;
73563;SDS011;61834;50.196;6.454;2022-09-23T16:36:22;1.25;;;0.93;;
73563;SDS011;61834;50.196;6.454;2022-09-23T16:38:55;1.10;;;0.90;;
73563;SDS011;61834;50.196;6.454;2022-09-23T16:41:27;0.80;;;0.80;;
73563;SDS011;61834;50.196;6.454;2022-09-23T16:43:53;0.77;;;0.75;;
73563;SDS011;61834;50.196;6.454;2022-09-23T16:46:19;0.82;;;0.75;;
73563;SDS011;61834;50.196;6.454;2022-09-23T16:48:45;0.80;;;0.80;;
73563;SDS011;61834;50.196;6.454;2022-09-23T16:51:21;0.73;;;0.60;;
73563;SDS011;61834;50.196;6.454;2022-09-23T16:53:50;1.05;;;0.90;;
73563;SDS011;61834;50.196;6.454;2022-09-23T16:56:18;0.88;;;0.82;;
73563;SDS011;61834;50.196;6.454;2022-09-23T16:58:46;1.55;;;1.00;;
73563;SDS011;61834;50.196;6.454;2022-09-23T17:01:14;0.70;;;0.70;;
73563;SDS011;61834;50.196;6.454;2022-09-23T17:04:01;0.88;;;0.77;;
73563;SDS011;61834;50.196;6.454;2022-09-23T17:06:27;0.75;;;0.70;;
73563;SDS011;61834;50.196;6.454;2022-09-23T17:08:53;1.33;;;0.90;;
73563;SDS011;61834;50.196;6.454;2022-09-23T17:11:18;1.05;;;0.70;;
73563;SDS011;61834;50.196;6.454;2022-09-23T17:13:44;1.15;;;0.80;;
73563;SDS011;61834;50.196;6.454;2022-09-23T17:16:10;1.20;;;0.90;;
73563;SDS011;61834;50.196;6.454;2022-09-23T17:18:45;1.00;;;0.77;;
73563;SDS011;61834;50.196;6.454;2022-09-23T17:21:10;0.80;;;0.80;;
73563;SDS011;61834;50.196;6.454;2022-09-23T17:23:35;0.80;;;0.73;;
73563;SDS011;61834;50.196;6.454;2022-09-23T17:26:01;1.25;;;0.80;;
73563;SDS011;61834;50.196;6.454;2022-09-23T17:28:29;1.13;;;1.02;;
73563;SDS011;61834;50.196;6.454;2022-09-23T17:30:59;0.93;;;0.80;;
73563;SDS011;61834;50.196;6.454;2022-09-23T17:33:28;0.85;;;0.70;;
73563;SDS011;61834;50.196;6.454;2022-09-23T17:35:55;0.80;;;0.70;;
73563;SDS011;61834;50.196;6.454;2022-09-23T17:38:21;1.17;;;0.90;;
73563;SDS011;61834;50.196;6.454;2022-09-23T17:40:48;0.77;;;0.70;;
73563;SDS011;61834;50.196;6.454;2022-09-23T17:43:15;0.98;;;0.80;;